Terminal Aerodrome Forecast
Issued by NWS

Home | Current Version | Previous Version | Text Only | Print | Product List | Glossary On
Versions: 1 2 3 4 5 6 7 8 9 10 11 12 13 14
000
FTUS45 KVEF 231915 AAA
TAFEED
TAF AMD
KEED 231915Z 2319/2418 34010KT P6SM SKC
     FM240500 28007KT P6SM SKC
     FM241600 01006KT P6SM SKC=

USA.gov is the U.S. government's official web portal to all federal, state and local government web resources and services.